Time,TemperatureF,DewpointF,PressureIn,WindDirection,WindDirectionDegrees,WindSpeedMPH,WindSpeedGustMPH,Humidity,HourlyPrecipIn,Conditions,Clouds,dailyrainin,SoftwareType,DateUTC
2013-06-14 01:23:00,60.0,52.0,29.98,NE,50,2.0,5.0,75,0.00,,,0.02,,2013-06-14 06:23:00,
2013-06-14 01:33:00,60.0,52.0,29.98,NE,49,4.0,8.0,75,0.00,,,0.02,,2013-06-14 06:33:00,
2013-06-14 01:43:00,60.0,52.0,29.98,NE,49,4.0,8.0,75,0.00,,,0.02,,2013-06-14 06:43:00,
2013-06-14 01:52:00,60.0,52.0,29.99,NNE,24,5.0,11.0,74,0.00,,,0.02,,2013-06-14 06:52:00,
2013-06-14 02:02:00,60.0,52.0,29.99,ENE,65,4.0,9.0,75,0.00,,,0.02,,2013-06-14 07:02:00,
2013-06-14 02:12:00,60.0,52.0,29.99,ENE,65,4.0,9.0,75,0.00,,,0.02,,2013-06-14 07:12:00,
2013-06-14 02:22:00,59.0,51.0,30.00,NNE,29,3.0,8.0,76,0.00,,,0.02,,2013-06-14 07:22:00,
2013-06-14 02:33:00,59.0,52.0,30.01,ENE,71,2.0,5.0,77,0.00,,,0.02,,2013-06-14 07:33:00,
2013-06-14 02:43:00,59.0,52.0,30.01,ENE,71,2.0,5.0,77,0.00,,,0.02,,2013-06-14 07:43:00,
2013-06-14 02:53:00,58.0,51.0,30.01,NE,40,2.0,7.0,78,0.00,,,0.02,,2013-06-14 07:53:00,
2013-06-14 03:02:00,58.0,52.0,30.01,NE,48,4.0,8.0,79,0.00,,,0.02,,2013-06-14 08:02:00,
2013-06-14 03:12:00,58.0,52.0,30.01,NE,48,4.0,8.0,79,0.00,,,0.02,,2013-06-14 08:12:00,
2013-06-14 03:23:00,58.0,52.0,30.02,NE,52,2.0,7.0,79,0.00,,,0.02,,2013-06-14 08:23:00,
2013-06-14 03:33:00,58.0,52.0,30.02,NNE,22,3.0,6.0,80,0.00,,,0.02,,2013-06-14 08:33:00,
2013-06-14 03:43:00,58.0,52.0,30.02,NNE,22,3.0,6.0,80,0.00,,,0.02,,2013-06-14 08:43:00,
2013-06-14 03:53:00,57.0,51.0,30.02,NE,41,3.0,6.0,80,0.00,,,0.02,,2013-06-14 08:53:00,
2013-06-14 04:02:00,57.0,51.0,30.01,NE,49,2.0,7.0,81,0.00,,,0.02,,2013-06-14 09:02:00,
2013-06-14 04:12:00,57.0,51.0,30.01,NE,49,2.0,7.0,81,0.00,,,0.02,,2013-06-14 09:12:00,
2013-06-14 04:22:00,57.0,52.0,30.01,NE,37,1.0,5.0,82,0.00,,,0.02,,2013-06-14 09:22:00,
2013-06-14 04:33:00,56.0,51.0,30.02,NE,43,1.0,5.0,84,0.00,,,0.02,,2013-06-14 09:33:00,
2013-06-14 04:43:00,56.0,51.0,30.02,NE,43,1.0,5.0,84,0.00,,,0.02,,2013-06-14 09:43:00,
2013-06-14 04:53:00,56.0,52.0,30.02,NNW,331,1.0,3.0,85,0.00,,,0.02,,2013-06-14 09:53:00,
2013-06-14 05:01:00,55.0,51.0,30.02,NNW,330,0.0,3.0,85,0.00,,,0.02,,2013-06-14 10:01:00,
2013-06-14 05:11:00,55.0,51.0,30.02,NNW,330,0.0,3.0,85,0.00,,,0.02,,2013-06-14 10:11:00,
2013-06-14 05:22:00,55.0,51.0,30.02,WNW,298,1.0,4.0,86,0.00,,,0.00,,2013-06-14 10:22:00,
2013-06-14 05:34:00,55.0,51.0,30.03,NW,317,2.0,7.0,86,0.00,,,0.00,,2013-06-14 10:34:00,
2013-06-14 05:43:00,55.0,51.0,30.03,NW,317,2.0,7.0,86,0.00,,,0.00,,2013-06-14 10:43:00,
2013-06-14 05:52:00,56.0,52.0,30.03,NW,317,3.0,7.0,85,0.00,,,0.00,,2013-06-14 10:52:00,
2013-06-14 06:02:00,56.0,52.0,30.04,NW,324,3.0,8.0,85,0.00,,,0.00,,2013-06-14 11:02:00,
2013-06-14 06:11:00,56.0,52.0,30.04,NW,324,3.0,8.0,85,0.00,,,0.00,,2013-06-14 11:11:00,
2013-06-14 06:22:00,56.0,52.0,30.05,WNW,302,3.0,7.0,85,0.00,,,0.00,,2013-06-14 11:22:00,
2013-06-14 06:32:00,56.0,52.0,30.05,WNW,302,3.0,7.0,85,0.00,,,0.00,,2013-06-14 11:32:00,
2013-06-14 06:43:00,56.0,52.0,30.06,WNW,290,4.0,7.0,85,0.00,,,0.00,,2013-06-14 11:43:00,
2013-06-14 06:52:00,57.0,52.0,30.06,NNW,348,3.0,6.0,83,0.00,,,0.00,,2013-06-14 11:52:00,
2013-06-14 07:02:00,57.0,52.0,30.06,NNW,348,3.0,6.0,83,0.00,,,0.00,,2013-06-14 12:02:00,
2013-06-14 07:12:00,58.0,53.0,30.05,North,9,2.0,7.0,83,0.00,,,0.00,,2013-06-14 12:12:00,
2013-06-14 07:22:00,59.0,53.0,30.06,North,355,3.0,6.0,81,0.00,,,0.00,,2013-06-14 12:22:00,
2013-06-14 07:33:00,59.0,53.0,30.06,North,355,3.0,6.0,81,0.00,,,0.00,,2013-06-14 12:33:00,
2013-06-14 07:43:00,59.0,53.0,30.06,WNW,298,3.0,8.0,80,0.00,,,0.00,,2013-06-14 12:43:00,
2013-06-14 07:52:00,60.0,54.0,30.07,NW,326,2.0,9.0,80,0.00,,,0.00,,2013-06-14 12:52:00,
2013-06-14 08:02:00,60.0,54.0,30.07,NW,326,2.0,9.0,80,0.00,,,0.00,,2013-06-14 13:02:00,
2013-06-14 08:11:00,61.0,54.0,30.07,North,350,4.0,8.0,77,0.00,,,0.00,,2013-06-14 13:11:00,
2013-06-14 08:22:00,61.0,53.0,30.08,NNE,23,3.0,9.0,76,0.00,,,0.00,,2013-06-14 13:22:00,
2013-06-14 08:33:00,61.0,53.0,30.08,NNE,23,3.0,9.0,76,0.00,,,0.00,,2013-06-14 13:33:00,
2013-06-14 08:43:00,63.0,55.0,30.08,NNE,26,2.0,8.0,75,0.00,,,0.00,,2013-06-14 13:43:00,
2013-06-14 08:53:00,64.0,56.0,30.09,NE,35,2.0,7.0,74,0.00,,,0.00,,2013-06-14 13:53:00,
2013-06-14 09:02:00,64.0,56.0,30.09,NE,35,2.0,7.0,74,0.00,,,0.00,,2013-06-14 14:02:00,
2013-06-14 09:11:00,64.0,55.0,30.09,NE,42,3.0,10.0,72,0.00,,,0.00,,2013-06-14 14:11:00,
2013-06-14 09:22:00,65.0,56.0,30.10,North,360,3.0,7.0,72,0.00,,,0.00,,2013-06-14 14:22:00,
2013-06-14 09:34:00,65.0,56.0,30.10,North,360,3.0,7.0,72,0.00,,,0.00,,2013-06-14 14:34:00,
2013-06-14 09:43:00,65.0,55.0,30.09,NNE,29,5.0,9.0,70,0.00,,,0.00,,2013-06-14 14:43:00,
2013-06-14 09:52:00,66.0,56.0,30.09,NW,326,3.0,8.0,70,0.00,,,0.00,,2013-06-14 14:52:00,
2013-06-14 10:01:00,66.0,56.0,30.09,NW,326,3.0,8.0,70,0.00,,,0.00,,2013-06-14 15:01:00,
2013-06-14 10:11:00,67.0,56.0,30.09,NE,55,3.0,7.0,67,0.00,,,0.00,,2013-06-14 15:11:00,
2013-06-14 10:23:00,68.0,57.0,30.09,North,5,3.0,8.0,68,0.00,,,0.00,,2013-06-14 15:23:00,
2013-06-14 10:33:00,68.0,57.0,30.09,North,5,3.0,8.0,68,0.00,,,0.00,,2013-06-14 15:33:00,
2013-06-14 10:44:00,68.0,55.0,30.08,NNW,340,3.0,9.0,63,0.00,,,0.00,,2013-06-14 15:44:00,
2013-06-14 10:52:00,69.0,55.0,30.07,NE,34,3.0,8.0,62,0.00,,,0.00,,2013-06-14 15:52:00,
2013-06-14 11:01:00,69.0,55.0,30.07,NE,34,3.0,8.0,62,0.00,,,0.00,,2013-06-14 16:01:00,
2013-06-14 11:11:00,70.0,56.0,30.07,NE,42,2.0,8.0,62,0.00,,,0.00,,2013-06-14 16:11:00,
2013-06-14 11:22:00,70.0,55.0,30.06,NNE,13,3.0,8.0,59,0.00,,,0.00,,2013-06-14 16:22:00,
2013-06-14 11:33:00,70.0,55.0,30.06,NNE,13,3.0,8.0,59,0.00,,,0.00,,2013-06-14 16:33:00,
2013-06-14 11:43:00,71.0,57.0,30.05,East,80,0.0,7.0,62,0.00,,,0.00,,2013-06-14 16:43:00,
2013-06-14 11:52:00,72.0,57.0,30.05,ENE,77,3.0,7.0,59,0.00,,,0.00,,2013-06-14 16:52:00,
2013-06-14 12:02:00,72.0,57.0,30.05,ENE,77,3.0,7.0,59,0.00,,,0.00,,2013-06-14 17:02:00,
2013-06-14 12:11:00,73.0,56.0,30.05,East,96,3.0,7.0,55,0.00,,,0.00,,2013-06-14 17:11:00,
2013-06-14 12:22:00,73.0,55.0,30.05,ENE,67,2.0,8.0,54,0.00,,,0.00,,2013-06-14 17:22:00,
2013-06-14 12:34:00,73.0,55.0,30.05,ENE,67,2.0,8.0,54,0.00,,,0.00,,2013-06-14 17:34:00,
2013-06-14 12:43:00,74.0,57.0,30.06,NNW,346,1.0,7.0,56,0.00,,,0.00,,2013-06-14 17:43:00,
2013-06-14 12:53:00,74.0,54.0,30.06,NNE,12,1.0,8.0,49,0.00,,,0.00,,2013-06-14 17:53:00,
2013-06-14 13:02:00,74.0,54.0,30.06,NNE,12,1.0,8.0,49,0.00,,,0.00,,2013-06-14 18:02:00,
2013-06-14 13:11:00,75.0,57.0,30.06,ENE,78,1.0,4.0,54,0.00,,,0.00,,2013-06-14 18:11:00,
2013-06-14 13:22:00,75.0,57.0,30.06,ENE,78,1.0,4.0,54,0.00,,,0.00,,2013-06-14 18:22:00,
2013-06-14 13:32:00,75.0,57.0,30.06,ENE,78,1.0,4.0,54,0.00,,,0.00,,2013-06-14 18:32:00,
2013-06-14 13:43:00,76.0,54.0,30.06,NW,322,2.0,10.0,46,0.00,,,0.00,,2013-06-14 18:43:00,
2013-06-14 13:52:00,77.0,55.0,30.06,NE,52,3.0,7.0,47,0.00,,,0.00,,2013-06-14 18:52:00,
2013-06-14 14:01:00,77.0,55.0,30.06,NE,52,3.0,7.0,47,0.00,,,0.00,,2013-06-14 19:01:00,
2013-06-14 14:11:00,78.0,55.0,30.06,NE,49,2.0,5.0,45,0.00,,,0.00,,2013-06-14 19:11:00,
2013-06-14 14:22:00,77.0,54.0,30.06,North,360,3.0,8.0,45,0.00,,,0.00,,2013-06-14 19:22:00,
2013-06-14 14:32:00,77.0,54.0,30.06,North,360,3.0,8.0,45,0.00,,,0.00,,2013-06-14 19:32:00,
2013-06-14 14:43:00,78.0,54.0,30.05,ESE,111,2.0,6.0,44,0.00,,,0.00,,2013-06-14 19:43:00,
2013-06-14 14:53:00,78.0,56.0,30.05,North,355,4.0,8.0,46,0.00,,,0.00,,2013-06-14 19:53:00,
2013-06-14 15:02:00,78.0,56.0,30.05,North,355,4.0,8.0,46,0.00,,,0.00,,2013-06-14 20:02:00,
2013-06-14 15:11:00,77.0,52.0,30.06,NNW,340,1.0,6.0,42,0.00,,,0.00,,2013-06-14 20:11:00,
2013-06-14 15:22:00,76.0,53.0,30.05,NW,306,1.0,6.0,45,0.00,,,0.00,,2013-06-14 20:22:00,
2013-06-14 15:33:00,76.0,53.0,30.05,NW,306,1.0,6.0,45,0.00,,,0.00,,2013-06-14 20:33:00,
2013-06-14 15:43:00,76.0,52.0,30.04,North,355,2.0,7.0,44,0.00,,,0.00,,2013-06-14 20:43:00,
2013-06-14 15:53:00,78.0,52.0,30.04,East,98,1.0,6.0,41,0.00,,,0.00,,2013-06-14 20:53:00,
2013-06-14 16:02:00,78.0,52.0,30.04,East,98,1.0,6.0,41,0.00,,,0.00,,2013-06-14 21:02:00,
2013-06-14 16:11:00,78.0,53.0,30.03,North,360,1.0,5.0,42,0.00,,,0.00,,2013-06-14 21:11:00,
2013-06-14 16:22:00,78.0,54.0,30.03,WNW,303,0.0,7.0,43,0.00,,,0.00,,2013-06-14 21:22:00,
2013-06-14 16:34:00,78.0,54.0,30.03,WNW,303,0.0,7.0,43,0.00,,,0.00,,2013-06-14 21:34:00,
2013-06-14 16:42:00,79.0,54.0,30.02,SSE,167,2.0,6.0,42,0.00,,,0.00,,2013-06-14 21:42:00,
2013-06-14 16:52:00,79.0,55.0,30.01,SSE,163,0.0,4.0,43,0.00,,,0.00,,2013-06-14 21:52:00,
2013-06-14 17:01:00,79.0,55.0,30.01,SSE,163,0.0,4.0,43,0.00,,,0.00,,2013-06-14 22:01:00,
2013-06-14 17:11:00,79.0,53.0,30.01,SE,141,1.0,5.0,41,0.00,,,0.00,,2013-06-14 22:11:00,
2013-06-14 17:22:00,79.0,53.0,30.00,South,173,0.0,4.0,40,0.00,,,0.00,,2013-06-14 22:22:00,
2013-06-14 17:33:00,79.0,53.0,30.00,South,173,0.0,4.0,40,0.00,,,0.00,,2013-06-14 22:33:00,
2013-06-14 17:43:00,79.0,53.0,29.99,West,269,0.0,7.0,40,0.00,,,0.00,,2013-06-14 22:43:00,
2013-06-14 17:53:00,80.0,54.0,29.98,SW,225,0.0,4.0,41,0.00,,,0.00,,2013-06-14 22:53:00,
2013-06-14 18:02:00,80.0,54.0,29.98,SW,225,0.0,4.0,41,0.00,,,0.00,,2013-06-14 23:02:00,
2013-06-14 18:11:00,79.0,53.0,29.97,East,86,3.0,8.0,41,0.00,,,0.00,,2013-06-14 23:11:00,
2013-06-14 18:22:00,79.0,53.0,29.97,ENE,68,1.0,7.0,40,0.00,,,0.00,,2013-06-14 23:22:00,
2013-06-14 18:33:00,79.0,53.0,29.97,ENE,68,1.0,7.0,40,0.00,,,0.00,,2013-06-14 23:33:00,
2013-06-14 18:43:00,78.0,53.0,29.96,ENE,71,2.0,7.0,42,0.00,,,0.00,,2013-06-14 23:43:00,
2013-06-14 18:52:00,78.0,52.0,29.95,East,97,3.0,8.0,40,0.00,,,0.00,,2013-06-14 23:52:00,
2013-06-14 19:01:00,78.0,52.0,29.95,East,97,3.0,8.0,40,0.00,,,0.00,,2013-06-15 00:01:00,
2013-06-14 19:11:00,78.0,52.0,29.96,East,79,2.0,8.0,41,0.00,,,0.00,,2013-06-15 00:11:00,
2013-06-14 19:22:00,78.0,54.0,29.97,ESE,109,0.0,3.0,43,0.00,,,0.00,,2013-06-15 00:22:00,
2013-06-14 19:34:00,78.0,54.0,29.97,ESE,109,0.0,3.0,43,0.00,,,0.00,,2013-06-15 00:34:00,
2013-06-14 19:43:00,77.0,53.0,29.97,East,91,0.0,2.0,43,0.00,,,0.00,,2013-06-15 00:43:00,
2013-06-14 19:53:00,77.0,53.0,29.97,East,91,0.0,2.0,43,0.00,,,0.00,,2013-06-15 00:53:00,
2013-06-14 20:01:00,76.0,54.0,29.99,SSE,163,0.0,1.0,46,0.00,,,0.00,,2013-06-15 01:01:00,
2013-06-14 20:11:00,76.0,54.0,29.99,SSE,163,0.0,2.0,47,0.00,,,0.00,,2013-06-15 01:11:00,
2013-06-14 20:22:00,76.0,54.0,29.99,SSE,163,0.0,2.0,47,0.00,,,0.00,,2013-06-15 01:22:00,
2013-06-14 20:33:00,74.0,54.0,29.98,SSE,163,0.0,0.0,49,0.00,,,0.00,,2013-06-15 01:33:00,
2013-06-14 20:43:00,74.0,54.0,29.98,SSE,163,0.0,0.0,49,0.00,,,0.00,,2013-06-15 01:43:00,
2013-06-14 20:54:00,73.0,56.0,29.98,SSE,163,0.0,0.0,56,0.00,,,0.00,,2013-06-15 01:54:00,
2013-06-14 21:02:00,72.0,55.0,29.98,SSE,163,0.0,0.0,55,0.00,,,0.00,,2013-06-15 02:02:00,
2013-06-14 21:11:00,71.0,54.0,29.98,SSE,163,0.0,0.0,56,0.00,,,0.00,,2013-06-15 02:11:00,
2013-06-14 21:23:00,71.0,54.0,29.98,SSE,163,0.0,0.0,56,0.00,,,0.00,,2013-06-15 02:23:00,
2013-06-14 21:33:00,70.0,54.0,29.98,SSE,163,0.0,0.0,56,0.00,,,0.00,,2013-06-15 02:33:00,
2013-06-14 21:43:00,70.0,54.0,29.99,SSE,163,0.0,0.0,57,0.00,,,0.00,,2013-06-15 02:43:00,
2013-06-14 21:53:00,70.0,54.0,29.99,SSE,163,0.0,0.0,57,0.00,,,0.00,,2013-06-15 02:53:00,
2013-06-14 22:01:00,70.0,54.0,29.99,SSE,163,0.0,0.0,57,0.00,,,0.00,,2013-06-15 03:01:00,
2013-06-14 22:11:00,70.0,53.0,30.01,SSE,163,0.0,1.0,55,0.00,,,0.00,,2013-06-15 03:11:00,
2013-06-14 22:24:00,70.0,54.0,30.02,SSE,163,0.0,0.0,56,0.00,,,0.00,,2013-06-15 03:24:00,
2013-06-14 22:32:00,70.0,54.0,30.02,SSE,163,0.0,0.0,56,0.00,,,0.00,,2013-06-15 03:32:00,
2013-06-14 22:44:00,70.0,56.0,30.01,SSE,163,0.0,0.0,62,0.00,,,0.00,,2013-06-15 03:44:00,
2013-06-14 22:52:00,68.0,55.0,30.00,SSE,163,0.0,1.0,64,0.00,,,0.00,,2013-06-15 03:52:00,
2013-06-14 23:02:00,68.0,55.0,30.00,SSE,163,0.0,1.0,64,0.00,,,0.00,,2013-06-15 04:02:00,
2013-06-14 23:12:00,67.0,55.0,29.99,SSE,163,0.0,1.0,65,0.00,,,0.00,,2013-06-15 04:12:00,
2013-06-14 23:22:00,66.0,55.0,29.98,SSE,163,0.0,1.0,68,0.00,,,0.00,,2013-06-15 04:22:00,
2013-06-14 23:34:00,66.0,55.0,29.98,SSE,163,0.0,1.0,68,0.00,,,0.00,,2013-06-15 04:34:00,
2013-06-14 23:43:00,67.0,56.0,30.00,ESE,121,0.0,2.0,67,0.00,,,0.00,,2013-06-15 04:43:00,
2013-06-14 23:53:00,67.0,56.0,29.99,ESE,121,0.0,1.0,67,0.00,,,0.00,,2013-06-15 04:53:00,